Time;durP1;ratioP1;P1;durP2;ratioP2;P2;SDS_P1;SDS_P2;PMS_P1;PMS_P2;Temp;Humidity;BMP_temperature;BMP_pressure;BME280_temperature;BME280_humidity;BME280_pressure;Samples;Min_cycle;Max_cycle;Signal;HPM_P1;HPM_P2
2023/01/01 00:00:37;;;;;;;12.93;7.45;;;9.00;99.90;;;;;;10208479;23;20005;-78
2023/01/01 00:04:38;;;;;;;7.63;4.43;;;9.00;99.90;;;;;;10207527;23;20064;-79
2023/01/01 00:08:39;;;;;;;5.53;3.30;;;9.70;99.90;;;;;;10207036;23;20551;-80
2023/01/01 00:12:40;;;;;;;5.28;2.92;;;9.90;99.90;;;;;;10206927;23;20005;-79
2023/01/01 00:16:40;;;;;;;3.63;2.30;;;10.30;99.90;;;;;;10206118;23;20065;-79
2023/01/01 00:20:41;;;;;;;4.43;2.85;;;10.60;99.90;;;;;;10206955;23;20088;-79
2023/01/01 00:24:41;;;;;;;6.25;3.60;;;11.00;99.90;;;;;;10205912;23;20005;-79
2023/01/01 00:28:43;;;;;;;5.43;3.50;;;11.30;99.90;;;;;;10232697;23;20005;-79
2023/01/01 00:32:44;;;;;;;5.45;3.28;;;11.40;99.90;;;;;;10206540;23;20068;-80
2023/01/01 00:36:45;;;;;;;7.05;4.28;;;11.50;99.90;;;;;;10205795;23;20037;-79
2023/01/01 00:40:45;;;;;;;5.68;3.88;;;11.40;99.90;;;;;;10232518;23;20336;-80
2023/01/01 00:44:46;;;;;;;6.00;3.22;;;11.20;99.90;;;;;;10205835;23;20005;-80
2023/01/01 00:48:46;;;;;;;4.75;2.97;;;11.50;99.90;;;;;;10206277;23;20099;-79
2023/01/01 00:52:47;;;;;;;5.22;2.90;;;11.70;99.90;;;;;;10232536;23;19997;-78
2023/01/01 00:56:48;;;;;;;6.88;3.17;;;11.90;99.90;;;;;;10230605;23;20012;-78
2023/01/01 01:00:50;;;;;;;6.45;3.25;;;11.80;99.90;;;;;;10235043;23;20008;-78
2023/01/01 01:04:50;;;;;;;7.15;3.75;;;11.90;99.90;;;;;;10233129;23;20013;-80
2023/01/01 01:08:51;;;;;;;5.15;3.38;;;11.90;99.90;;;;;;10235250;23;20004;-79
2023/01/01 01:12:52;;;;;;;7.25;3.42;;;11.80;99.90;;;;;;10207819;23;20031;-78
2023/01/01 01:16:52;;;;;;;4.85;3.17;;;11.50;99.90;;;;;;10208526;23;20013;-80
2023/01/01 01:20:53;;;;;;;5.85;3.33;;;11.20;99.90;;;;;;10234794;23;20012;-79
2023/01/01 01:24:54;;;;;;;6.72;3.40;;;11.20;99.90;;;;;;10208131;23;20013;-79
2023/01/01 01:28:54;;;;;;;7.63;4.00;;;11.20;99.90;;;;;;10208997;23;20410;-78
2023/01/01 01:32:55;;;;;;;7.30;3.70;;;11.00;99.90;;;;;;10235153;23;20439;-79
2023/01/01 01:36:56;;;;;;;5.28;3.40;;;11.00;99.90;;;;;;10207697;23;20104;-78
2023/01/01 01:40:56;;;;;;;7.43;3.88;;;11.00;99.90;;;;;;10208649;23;20016;-78
2023/01/01 01:45:01;;;;;;;5.82;3.85;;;11.00;99.90;;;;;;10234495;23;20005;-80
2023/01/01 01:49:09;;;;;;;6.82;4.30;;;10.80;99.90;;;;;;10209506;23;20017;-79
2023/01/01 01:53:23;;;;;;;5.63;3.40;;;10.60;99.90;;;;;;10235729;23;19997;-79
2023/01/01 01:57:24;;;;;;;5.35;2.70;;;10.60;99.90;;;;;;10209608;23;20451;-77
2023/01/01 02:01:25;;;;;;;3.58;2.50;;;10.70;99.90;;;;;;10233262;23;20032;-78
2023/01/01 02:05:27;;;;;;;4.13;2.20;;;10.70;99.90;;;;;;10207927;23;20296;-80
2023/01/01 02:09:28;;;;;;;4.28;2.33;;;10.50;99.90;;;;;;10208234;23;20012;-79
2023/01/01 02:13:29;;;;;;;5.28;2.35;;;10.30;99.90;;;;;;10208302;23;20061;-80
2023/01/01 02:17:33;;;;;;;6.22;2.60;;;10.40;99.90;;;;;;10234716;23;20008;-79
2023/01/01 02:21:47;;;;;;;4.28;2.85;;;10.40;99.90;;;;;;10234414;23;20012;-79
2023/01/01 02:26:03;;;;;;;5.05;2.50;;;10.40;99.90;;;;;;10232375;23;20005;-78
2023/01/01 02:30:07;;;;;;;3.47;2.35;;;10.30;99.90;;;;;;10208264;23;20096;-79
2023/01/01 02:34:13;;;;;;;4.30;2.50;;;10.60;99.90;;;;;;10234676;23;20615;-80
2023/01/01 02:38:32;;;;;;;5.80;2.60;;;11.00;99.90;;;;;;10232853;23;20436;-79
2023/01/01 02:42:33;;;;;;;4.50;2.85;;;11.20;99.90;;;;;;10207981;23;20005;-78
2023/01/01 02:46:35;;;;;;;5.72;2.75;;;11.50;99.90;;;;;;10232323;23;20061;-79
2023/01/01 02:50:35;;;;;;;5.82;3.05;;;11.70;99.90;;;;;;10232801;23;20012;-78
2023/01/01 02:54:58;;;;;;;5.65;3.28;;;11.70;99.90;;;;;;10233338;23;19997;-78
2023/01/01 03:03:41;;;;;;;7.00;3.30;;;11.50;99.90;;;;;;10233780;23;20051;-80
2023/01/01 03:08:09;;;;;;;4.85;2.75;;;11.20;99.90;;;;;;10206455;23;20013;-79
2023/01/01 03:12:42;;;;;;;5.65;3.03;;;10.80;99.90;;;;;;10232067;23;20001;-79
2023/01/01 03:16:51;;;;;;;5.05;2.97;;;11.00;99.90;;;;;;10207454;23;20013;-79
2023/01/01 03:20:57;;;;;;;6.17;3.10;;;10.90;99.90;;;;;;10207514;23;20005;-79
2023/01/01 03:25:05;;;;;;;6.00;3.58;;;11.00;99.90;;;;;;10232868;23;20005;-80
2023/01/01 03:29:09;;;;;;;9.60;3.78;;;11.10;99.90;;;;;;10233608;23;20001;-79
2023/01/01 03:33:17;;;;;;;5.68;3.17;;;11.40;99.90;;;;;;10206915;23;20005;-80
2023/01/01 03:37:22;;;;;;;4.60;3.08;;;11.40;99.90;;;;;;10206988;23;20020;-80
2023/01/01 03:41:33;;;;;;;4.88;2.83;;;11.30;99.90;;;;;;10206744;23;20355;-79
2023/01/01 03:45:39;;;;;;;;;;;11.60;99.90;;;;;;10233319;23;20012;-78
2023/01/01 03:49:40;;;;;;;5.35;3.20;;;11.90;99.90;;;;;;10234944;23;19904;-79
2023/01/01 03:53:42;;;;;;;5.63;2.95;;;11.90;99.90;;;;;;10235025;23;19997;-80
2023/01/01 03:58:03;;;;;;;5.72;3.25;;;11.70;99.90;;;;;;10234709;23;20009;-78
2023/01/01 04:02:07;;;;;;;6.88;3.63;;;11.90;99.90;;;;;;10207680;23;20008;-80
2023/01/01 04:06:10;;;;;;;6.35;4.00;;;11.70;99.90;;;;;;10207398;23;20387;-79
2023/01/01 04:10:17;;;;;;;7.28;3.55;;;11.80;99.90;;;;;;10207111;23;20321;-80
2023/01/01 04:14:29;;;;;;;7.38;3.95;;;12.00;99.90;;;;;;10233545;23;20012;-80
2023/01/01 04:18:29;;;;;;;6.05;3.95;;;12.20;99.90;;;;;;10206979;23;20012;-80
2023/01/01 04:22:30;;;;;;;5.35;3.28;;;12.50;99.90;;;;;;10207053;23;20448;-79
2023/01/01 04:26:30;;;;;;;6.10;3.65;;;12.30;99.90;;;;;;10232748;23;20001;-79
2023/01/01 04:30:31;;;;;;;6.07;3.70;;;11.90;99.90;;;;;;10206845;23;20335;-79
2023/01/01 04:34:31;;;;;;;6.90;3.65;;;11.60;99.90;;;;;;10232558;23;20016;-79
2023/01/01 04:38:33;;;;;;;7.93;3.80;;;11.20;99.90;;;;;;10206473;23;20103;-78
2023/01/01 04:42:34;;;;;;;6.80;3.78;;;10.70;99.90;;;;;;10206441;23;20005;-78
2023/01/01 04:46:34;;;;;;;8.82;3.65;;;10.40;99.90;;;;;;10206086;23;20063;-79
2023/01/01 04:50:35;;;;;;;5.70;3.83;;;10.10;99.90;;;;;;10233119;23;20487;-79
2023/01/01 04:54:35;;;;;;;6.95;3.92;;;9.90;99.90;;;;;;10205829;23;19997;-79
2023/01/01 04:58:38;;;;;;;6.70;3.72;;;9.90;99.90;;;;;;10233008;23;20005;-78
2023/01/01 05:02:38;;;;;;;6.90;4.03;;;10.00;99.90;;;;;;10232188;23;20060;-79
2023/01/01 05:06:39;;;;;;;9.05;4.55;;;10.20;99.90;;;;;;10205798;23;20005;-80
2023/01/01 05:10:39;;;;;;;8.15;4.43;;;10.20;99.90;;;;;;10231860;23;20002;-78
2023/01/01 05:14:40;;;;;;;9.57;4.70;;;10.30;99.90;;;;;;10205702;23;20431;-79
2023/01/01 05:18:42;;;;;;;8.35;4.65;;;10.20;99.90;;;;;;10205901;23;20096;-80
2023/01/01 05:22:45;;;;;;;7.68;4.53;;;10.10;99.90;;;;;;10205487;23;20343;-79
2023/01/01 05:26:46;;;;;;;9.18;5.38;;;9.90;99.90;;;;;;10231699;23;20005;-79
2023/01/01 05:30:46;;;;;;;8.57;5.30;;;9.70;99.90;;;;;;10232517;23;19997;-78
2023/01/01 05:34:47;;;;;;;9.18;4.32;;;9.40;99.90;;;;;;10232232;23;20005;-80
2023/01/01 05:38:47;;;;;;;9.00;4.97;;;9.10;99.90;;;;;;10232010;23;20001;-78
2023/01/01 05:42:48;;;;;;;9.70;4.60;;;9.10;99.90;;;;;;10207119;23;20063;-79
2023/01/01 05:46:49;;;;;;;6.07;3.70;;;9.20;99.90;;;;;;10207810;23;20049;-79
2023/01/01 05:50:49;;;;;;;6.25;3.50;;;9.20;99.90;;;;;;10234367;23;20391;-80
2023/01/01 05:54:50;;;;;;;6.63;3.38;;;9.50;99.90;;;;;;10235409;23;20331;-78
2023/01/01 05:58:51;;;;;;;6.75;3.40;;;10.60;99.90;;;;;;10210334;23;20016;-79
2023/01/01 06:02:53;;;;;;;5.85;3.47;;;10.80;99.90;;;;;;10233609;23;20052;-79
2023/01/01 06:06:54;;;;;;;6.22;3.20;;;10.90;99.90;;;;;;10208265;23;20515;-80
2023/01/01 06:11:02;;;;;;;8.00;3.80;;;11.20;99.90;;;;;;10209925;23;20001;-79
2023/01/01 06:15:03;;;;;;;8.30;4.13;;;11.20;99.90;;;;;;10233481;23;20097;-80
2023/01/01 06:19:04;;;;;;;9.55;4.25;;;11.10;99.90;;;;;;10235388;23;20008;-79
2023/01/01 06:23:04;;;;;;;8.18;3.88;;;10.80;99.90;;;;;;10208539;23;20013;-78
2023/01/01 06:27:05;;;;;;;6.25;4.22;;;10.40;99.90;;;;;;10208741;23;20009;-79
2023/01/01 06:31:08;;;;;;;5.35;3.72;;;10.20;99.90;;;;;;10208653;23;20052;-79
2023/01/01 06:35:09;;;;;;;7.53;4.28;;;10.10;99.90;;;;;;10234861;23;20080;-79
2023/01/01 06:39:09;;;;;;;6.68;3.95;;;9.80;99.90;;;;;;10234883;23;20436;-78
2023/01/01 06:43:10;;;;;;;7.05;3.60;;;9.50;99.90;;;;;;10206970;23;20088;-80
2023/01/01 06:47:10;;;;;;;9.48;4.60;;;9.30;99.90;;;;;;10207420;23;20328;-79
2023/01/01 06:51:22;;;;;;;7.03;4.35;;;9.30;99.90;;;;;;10234265;23;20075;-78
2023/01/01 06:55:23;;;;;;;7.55;4.18;;;9.40;99.90;;;;;;10207181;23;20495;-78
2023/01/01 06:59:23;;;;;;;9.05;4.03;;;9.30;99.90;;;;;;10207934;23;20009;-78
2023/01/01 07:03:24;;;;;;;6.50;4.00;;;9.40;99.90;;;;;;10233993;23;20020;-78
2023/01/01 07:07:24;;;;;;;5.43;3.40;;;9.40;99.90;;;;;;10207116;23;20012;-78
2023/01/01 07:11:25;;;;;;;6.47;3.65;;;9.40;99.90;;;;;;10234163;23;20000;-80
2023/01/01 07:15:26;;;;;;;8.48;4.25;;;9.20;99.90;;;;;;10207732;23;20133;-79
2023/01/01 07:19:27;;;;;;;8.68;3.95;;;9.10;99.90;;;;;;10232483;23;20088;-78
2023/01/01 07:23:30;;;;;;;5.35;3.30;;;9.10;99.90;;;;;;10232352;23;20007;-78
2023/01/01 07:27:30;;;;;;;5.63;3.42;;;9.10;99.90;;;;;;10207611;23;20060;-78
2023/01/01 07:31:31;;;;;;;5.53;3.03;;;9.20;99.90;;;;;;10207801;23;19997;-78
2023/01/01 07:35:31;;;;;;;3.88;2.40;;;9.40;99.90;;;;;;10207979;23;20104;-78
2023/01/01 07:39:32;;;;;;;4.20;2.70;;;9.40;99.90;;;;;;10234824;23;20008;-80
2023/01/01 07:43:32;;;;;;;3.63;2.25;;;9.50;99.90;;;;;;10210088;23;20451;-80
2023/01/01 07:47:33;;;;;;;5.45;2.30;;;9.60;99.90;;;;;;10210084;23;20016;-79
2023/01/01 07:51:34;;;;;;;4.35;2.50;;;9.90;99.90;;;;;;10237350;23;20518;-79
2023/01/01 07:55:34;;;;;;;3.85;2.53;;;10.10;99.90;;;;;;10235938;23;20081;-79
2023/01/01 07:59:35;;;;;;;4.82;2.65;;;10.30;99.90;;;;;;10209476;23;20044;-79
2023/01/01 08:03:36;;;;;;;4.40;2.58;;;10.50;99.90;;;;;;10208330;23;20075;-78
2023/01/01 08:07:37;;;;;;;6.20;2.50;;;10.30;99.90;;;;;;10207496;23;20009;-79
2023/01/01 08:11:37;;;;;;;3.92;2.42;;;10.40;99.90;;;;;;10234536;23;20428;-80
2023/01/01 08:15:38;;;;;;;7.03;2.30;;;10.50;99.90;;;;;;10208156;23;20387;-79
2023/01/01 08:19:38;;;;;;;3.38;2.50;;;10.50;99.90;;;;;;10234287;23;20001;-78
2023/01/01 08:23:39;;;;;;;5.13;2.90;;;10.50;99.90;;;;;;10234647;23;20060;-79
2023/01/01 08:27:39;;;;;;;10.45;4.18;;;10.60;99.90;;;;;;10234029;23;20009;-79
2023/01/01 08:31:40;;;;;;;17.23;7.45;;;10.70;99.90;;;;;;10207392;23;20008;-79
2023/01/01 08:35:41;;;;;;;5.63;3.35;;;11.00;99.90;;;;;;10231988;23;20060;-79
2023/01/01 08:39:42;;;;;;;4.80;3.03;;;11.10;99.90;;;;;;10233224;23;19997;-80
2023/01/01 08:43:42;;;;;;;6.60;3.80;;;11.20;99.90;;;;;;10233180;23;20013;-78
2023/01/01 08:47:43;;;;;;;5.20;3.10;;;11.50;99.90;;;;;;10207020;23;20017;-78
2023/01/01 08:51:44;;;;;;;5.25;2.90;;;11.80;99.90;;;;;;10233419;23;20001;-79
2023/01/01 08:55:44;;;;;;;6.38;2.60;;;12.20;99.90;;;;;;10206627;23;20012;-79
2023/01/01 08:59:44;;;;;;;5.05;2.88;;;12.60;99.90;;;;;;10233156;23;20012;-80
2023/01/01 09:03:45;;;;;;;5.45;2.90;;;12.60;99.90;;;;;;10206011;23;20020;-78
2023/01/01 09:07:45;;;;;;;4.80;3.08;;;12.70;99.90;;;;;;10231733;23;20005;-79
2023/01/01 09:11:54;;;;;;;4.03;2.55;;;13.00;99.90;;;;;;10206188;23;19997;-79
2023/01/01 09:15:56;;;;;;;6.38;2.67;;;13.30;99.90;;;;;;10205281;23;20012;-78
2023/01/01 09:19:56;;;;;;;3.45;1.98;;;13.70;99.90;;;;;;10232340;23;20032;-78
2023/01/01 09:23:57;;;;;;;3.15;1.90;;;14.00;99.90;;;;;;10208915;23;20009;-79
2023/01/01 09:28:06;;;;;;;3.17;1.90;;;14.50;99.90;;;;;;10234507;23;20005;-79
2023/01/01 09:32:07;;;;;;;2.67;1.88;;;14.90;99.90;;;;;;10235243;23;20447;-78
2023/01/01 09:36:34;;;;;;;4.50;1.80;;;15.20;99.90;;;;;;10208253;23;20012;-81
2023/01/01 09:40:58;;;;;;;3.42;1.80;;;15.20;99.90;;;;;;10226395;23;20009;-80
2023/01/01 09:45:14;;;;;;;3.70;2.00;;;15.40;99.90;;;;;;10233291;23;20405;-79
2023/01/01 09:49:27;;;;;;;3.20;1.67;;;15.40;99.90;;;;;;10234917;23;20008;-79
2023/01/01 09:53:38;;;;;;;4.43;2.25;;;15.50;99.90;;;;;;10208680;23;20009;-78
2023/01/01 09:57:39;;;;;;;4.30;2.90;;;15.20;99.90;;;;;;10234528;23;20474;-78
2023/01/01 10:01:48;;;;;;;3.95;2.03;;;15.30;99.90;;;;;;10234368;23;20005;-78
2023/01/01 10:05:59;;;;;;;4.53;1.80;;;15.10;99.90;;;;;;10207243;23;20013;-80
2023/01/01 10:10:45;;;;;;;2.72;1.60;;;14.90;99.90;;;;;;10207736;23;20001;-79
2023/01/01 10:14:52;;;;;;;3.03;1.90;;;14.80;99.90;;;;;;10063056;23;20446;-79
2023/01/01 10:18:56;;;;;;;3.75;1.90;;;14.80;99.90;;;;;;10207989;23;20009;-79
2023/01/01 10:23:02;;;;;;;2.33;1.50;;;14.90;99.90;;;;;;10233566;23;20016;-78
2023/01/01 10:27:04;;;;;;;4.32;1.85;;;14.90;99.90;;;;;;10207612;23;20005;-78
2023/01/01 10:31:31;;;;;;;3.80;2.00;;;14.90;99.90;;;;;;10235958;23;20080;-88
2023/01/01 10:35:40;;;;;;;5.78;2.15;;;15.10;99.90;;;;;;10236511;23;19996;-88
2023/01/01 10:39:42;;;;;;;3.40;1.70;;;15.00;99.90;;;;;;10209329;23;20067;-88
2023/01/01 10:43:44;;;;;;;3.60;1.73;;;15.10;99.90;;;;;;10209861;23;20024;-88
2023/01/01 10:48:25;;;;;;;2.58;1.75;;;15.20;99.90;;;;;;10234077;23;20040;-88
2023/01/01 10:52:30;;;;;;;3.45;1.75;;;15.50;99.90;;;;;;10209744;23;20005;-88
2023/01/01 10:56:40;;;;;;;3.05;1.90;;;15.80;99.90;;;;;;10209720;23;20013;-88
2023/01/01 11:00:41;;;;;;;3.20;1.80;;;15.80;99.90;;;;;;10236542;23;20355;-87
2023/01/01 11:04:41;;;;;;;2.75;2.00;;;15.80;99.90;;;;;;10209307;23;20016;-87
2023/01/01 11:08:48;;;;;;;3.10;1.80;;;15.80;99.90;;;;;;10233975;23;20093;-88
2023/01/01 11:12:50;;;;;;;2.58;1.60;;;16.00;99.90;;;;;;10234895;23;20072;-87
2023/01/01 11:16:51;;;;;;;2.08;1.45;;;16.00;99.90;;;;;;10209273;23;20009;-88
2023/01/01 11:20:57;;;;;;;2.33;1.58;;;16.50;99.90;;;;;;10209064;23;20005;-87
2023/01/01 11:25:02;;;;;;;2.35;1.58;;;16.60;99.90;;;;;;10208640;23;20071;-88
2023/01/01 11:29:23;;;;;;;2.72;1.40;;;16.90;99.90;;;;;;10208965;23;20005;-88
2023/01/01 11:33:28;;;;;;;2.20;1.65;;;17.10;99.90;;;;;;10207932;23;20140;-87
2023/01/01 11:37:32;;;;;;;2.53;1.50;;;17.00;99.90;;;;;;10208718;23;20032;-88
2023/01/01 11:41:45;;;;;;;3.78;1.50;;;17.00;99.90;;;;;;10233984;23;20019;-88
2023/01/01 11:45:47;;;;;;;3.53;1.60;;;16.80;99.90;;;;;;10207806;23;20092;-80
2023/01/01 11:49:57;;;;;;;2.88;1.38;;;17.10;99.90;;;;;;10206442;23;20044;-81
2023/01/01 11:54:24;;;;;;;2.88;1.48;;;17.00;99.90;;;;;;10206553;23;20005;-80
2023/01/01 11:58:49;;;;;;;2.60;1.60;;;17.00;99.90;;;;;;10204887;23;20109;-80
2023/01/01 12:02:57;;;;;;;3.13;1.73;;;17.90;99.90;;;;;;10205747;23;20032;-79
2023/01/01 12:07:05;;;;;;;3.35;1.73;;;19.40;99.90;;;;;;10229985;23;20024;-80
2023/01/01 12:11:18;;;;;;;2.58;1.48;;;21.10;99.90;;;;;;10203217;23;20013;-81
2023/01/01 12:15:40;;;;;;;4.72;1.90;;;22.10;99.90;;;;;;10230172;23;20001;-81
2023/01/01 12:20:07;;;;;;;2.92;1.50;;;22.00;99.90;;;;;;10206124;23;20013;-81
2023/01/01 12:24:11;;;;;;;2.63;1.73;;;21.40;99.90;;;;;;10176313;23;20017;-81
2023/01/01 12:28:18;;;;;;;3.80;1.83;;;19.50;99.90;;;;;;10205196;23;20010;-81
2023/01/01 12:32:44;;;;;;;3.03;1.50;;;18.10;99.90;;;;;;10205695;23;20714;-81
2023/01/01 12:36:57;;;;;;;3.15;1.70;;;17.10;99.90;;;;;;10205916;23;20344;-80
2023/01/01 12:41:06;;;;;;;2.55;1.52;;;16.50;99.90;;;;;;10231703;23;20005;-80
2023/01/01 12:45:33;;;;;;;3.17;1.70;;;16.20;99.90;;;;;;10205611;23;20398;-80
2023/01/01 12:49:50;;;;;;;4.38;1.95;;;16.10;99.90;;;;;;10206100;23;20012;-80
2023/01/01 12:54:08;;;;;;;2.15;1.55;;;16.10;99.90;;;;;;10235216;23;20072;-81
2023/01/01 12:58:18;;;;;;;2.90;1.67;;;15.90;99.90;;;;;;10238954;23;20063;-80
2023/01/01 13:02:22;;;;;;;3.47;1.45;;;15.90;99.90;;;;;;10211478;23;20009;-81
2023/01/01 13:06:56;;;;;;;7.07;2.05;;;15.90;99.90;;;;;;10237213;23;20005;-81
2023/01/01 13:10:58;;;;;;;2.00;1.60;;;15.80;99.90;;;;;;10235289;23;20052;-80
2023/01/01 13:14:58;;;;;;;3.05;1.67;;;15.80;99.90;;;;;;10210865;23;20355;-81
2023/01/01 13:18:59;;;;;;;2.95;1.88;;;15.80;99.90;;;;;;10211160;23;20001;-81
2023/01/01 13:22:59;;;;;;;2.78;1.45;;;15.70;99.90;;;;;;10235459;23;20005;-80
2023/01/01 13:27:00;;;;;;;3.10;1.67;;;15.70;99.90;;;;;;10209743;23;20012;-80
2023/01/01 13:31:00;;;;;;;3.95;1.50;;;15.90;99.90;;;;;;10211170;23;20012;-81
2023/01/01 13:35:01;;;;;;;2.85;1.48;;;15.70;99.90;;;;;;10237173;23;19997;-81
2023/01/01 13:39:02;;;;;;;3.38;1.80;;;15.70;99.90;;;;;;10211617;23;20440;-80
2023/01/01 13:43:05;;;;;;;3.08;1.60;;;15.70;99.90;;;;;;10237431;23;20008;-81
2023/01/01 13:47:37;;;;;;;3.65;1.85;;;15.70;99.90;;;;;;10210811;23;20013;-79
2023/01/01 13:52:22;;;;;;;3.38;1.65;;;15.60;99.90;;;;;;10211031;23;20080;-80
2023/01/01 13:56:36;;;;;;;3.72;1.77;;;15.60;99.90;;;;;;10211087;23;20016;-80
2023/01/01 14:01:16;;;;;;;3.03;1.40;;;15.70;99.90;;;;;;10237537;23;20009;-81
2023/01/01 14:05:27;;;;;;;2.88;1.45;;;15.50;99.90;;;;;;10168687;23;20558;-80
2023/01/01 14:09:28;;;;;;;2.42;1.23;;;15.30;99.90;;;;;;10211230;23;20491;-81
2023/01/01 14:13:37;;;;;;;3.45;1.70;;;15.20;99.90;;;;;;10211529;23;20093;-80
2023/01/01 14:17:40;;;;;;;4.57;1.42;;;15.20;99.90;;;;;;10237985;23;20005;-81
2023/01/01 14:21:44;;;;;;;2.50;1.35;;;15.10;99.90;;;;;;10211737;23;20011;-80
2023/01/01 14:25:45;;;;;;;3.08;1.33;;;15.00;99.90;;;;;;10210427;23;20092;-81
2023/01/01 14:29:47;;;;;;;3.67;2.10;;;14.80;99.90;;;;;;10237586;23;20001;-80
2023/01/01 14:33:48;;;;;;;2.03;1.60;;;14.80;99.90;;;;;;10237160;23;20020;-81
2023/01/01 14:37:50;;;;;;;2.20;1.40;;;14.60;99.90;;;;;;10234546;23;20009;-81
2023/01/01 14:41:52;;;;;;;2.42;1.33;;;14.40;99.90;;;;;;10234069;23;20005;-81
2023/01/01 14:45:53;;;;;;;2.60;1.38;;;14.10;99.90;;;;;;10235512;23;20486;-81
2023/01/01 14:50:00;;;;;;;2.05;1.50;;;14.00;99.90;;;;;;10236770;23;20008;-81
2023/01/01 14:54:03;;;;;;;4.68;1.45;;;13.70;99.90;;;;;;10209897;23;20025;-81
2023/01/01 14:58:04;;;;;;;2.47;1.50;;;13.20;99.90;;;;;;10234674;23;20044;-80
2023/01/01 15:02:13;;;;;;;2.70;1.90;;;12.80;99.90;;;;;;10209865;23;20099;-80
2023/01/01 15:06:16;;;;;;;3.50;2.00;;;12.30;99.90;;;;;;10235059;23;20005;-79
2023/01/01 15:10:17;;;;;;;5.43;2.70;;;11.90;99.90;;;;;;10209180;23;20005;-80
2023/01/01 15:14:35;;;;;;;4.75;2.45;;;12.10;99.90;;;;;;10233413;23;20068;-80
2023/01/01 15:18:46;;;;;;;5.80;2.88;;;11.80;99.90;;;;;;10208508;23;20009;-80
2023/01/01 15:22:48;;;;;;;3.15;1.98;;;11.50;99.90;;;;;;10234890;23;20001;-80
2023/01/01 15:26:53;;;;;;;4.00;2.53;;;11.40;99.90;;;;;;10234661;23;20084;-80
2023/01/01 15:30:55;;;;;;;2.50;1.58;;;11.20;99.90;;;;;;10235132;23;20076;-80
2023/01/01 15:35:05;;;;;;;3.65;2.00;;;11.10;99.90;;;;;;10236765;23;20291;-81
2023/01/01 15:39:10;;;;;;;6.28;2.95;;;11.00;99.90;;;;;;10211031;23;20017;-81
2023/01/01 15:43:19;;;;;;;5.72;3.58;;;10.80;99.90;;;;;;10210978;23;20056;-80
2023/01/01 15:47:25;;;;;;;11.90;7.07;;;10.60;99.90;;;;;;10209687;23;20005;-81
2023/01/01 15:51:27;;;;;;;17.23;8.02;;;10.80;99.90;;;;;;10209821;23;20006;-80
2023/01/01 15:55:32;;;;;;;8.98;4.63;;;11.10;99.90;;;;;;10209255;23;20467;-80
2023/01/01 15:59:34;;;;;;;4.32;2.95;;;11.00;99.90;;;;;;10236133;23;20001;-80
2023/01/01 16:03:37;;;;;;;3.95;2.35;;;10.70;99.90;;;;;;10209209;23;20005;-80
2023/01/01 16:07:37;;;;;;;6.93;2.80;;;10.40;99.90;;;;;;10209196;23;20063;-79
2023/01/01 16:11:38;;;;;;;12.02;7.03;;;10.00;99.90;;;;;;10234130;23;20348;-80
2023/01/01 16:15:57;;;;;;;4.25;2.70;;;9.70;99.90;;;;;;10208620;23;20452;-79
2023/01/01 16:19:58;;;;;;;5.70;3.33;;;9.70;99.90;;;;;;10234723;23;20028;-79
2023/01/01 16:23:59;;;;;;;4.93;3.20;;;9.50;99.90;;;;;;10233647;23;20001;-80
2023/01/01 16:28:00;;;;;;;6.35;3.10;;;9.20;99.90;;;;;;10208791;23;20027;-80
2023/01/01 16:32:00;;;;;;;3.83;2.50;;;9.00;99.90;;;;;;10208695;23;20001;-80
2023/01/01 16:36:01;;;;;;;2.17;1.67;;;9.10;99.90;;;;;;10235484;23;20016;-80
2023/01/01 16:40:01;;;;;;;2.88;1.52;;;8.90;99.90;;;;;;10208240;23;20005;-79
2023/01/01 16:44:02;;;;;;;3.90;2.15;;;9.00;99.90;;;;;;10207733;23;20062;-80
2023/01/01 16:48:02;;;;;;;2.67;1.92;;;9.20;99.90;;;;;;10207943;23;20009;-79
2023/01/01 16:52:03;;;;;;;2.17;1.40;;;9.50;99.90;;;;;;10207598;23;20052;-80
2023/01/01 16:56:04;;;;;;;2.30;1.50;;;9.20;99.90;;;;;;10234408;23;20015;-79
2023/01/01 17:00:05;;;;;;;3.47;1.80;;;8.90;99.90;;;;;;10233397;23;20013;-80
2023/01/01 17:04:06;;;;;;;4.95;1.80;;;8.50;99.90;;;;;;10206009;23;20329;-80
2023/01/01 17:08:07;;;;;;;9.10;2.30;;;8.30;99.90;;;;;;10206551;23;20092;-79
2023/01/01 17:12:07;;;;;;;3.70;2.30;;;8.00;99.90;;;;;;10207234;23;20001;-79
2023/01/01 17:16:09;;;;;;;4.30;2.40;;;7.80;99.90;;;;;;10207010;23;20009;-80
2023/01/01 17:20:10;;;;;;;1.80;1.30;;;7.90;99.90;;;;;;10232325;23;20001;-79
2023/01/01 17:24:10;;;;;;;2.33;1.40;;;7.90;99.90;;;;;;10205416;23;20374;-79
2023/01/01 17:28:11;;;;;;;4.55;1.80;;;7.80;99.90;;;;;;10205677;23;20020;-78
2023/01/01 17:32:12;;;;;;;9.13;3.63;;;7.60;99.90;;;;;;10206926;23;20008;-79
2023/01/01 17:36:13;;;;;;;4.65;2.13;;;7.60;99.90;;;;;;10206566;23;20009;-79
2023/01/01 17:40:14;;;;;;;3.38;1.73;;;7.20;99.90;;;;;;10231077;23;20056;-78
2023/01/01 17:44:14;;;;;;;3.38;1.27;;;7.20;99.90;;;;;;10235274;23;20009;-79
2023/01/01 17:48:15;;;;;;;4.20;1.60;;;7.30;99.90;;;;;;10235174;23;20080;-79
2023/01/01 17:52:15;;;;;;;10.43;3.47;;;7.20;99.90;;;;;;10208293;23;20012;-78
2023/01/01 17:56:17;;;;;;;4.35;3.17;;;7.00;99.90;;;;;;10235308;23;20012;-79
2023/01/01 18:00:18;;;;;;;3.92;2.47;;;6.90;99.90;;;;;;10208732;23;20661;-79
2023/01/01 18:04:18;;;;;;;4.07;2.30;;;7.00;99.90;;;;;;10234163;23;20017;-80
2023/01/01 18:08:19;;;;;;;5.40;3.00;;;6.80;99.90;;;;;;10234612;23;20436;-79
2023/01/01 18:12:20;;;;;;;9.73;4.10;;;6.60;99.90;;;;;;10234671;23;20033;-79
2023/01/01 18:16:20;;;;;;;10.95;5.65;;;6.60;99.90;;;;;;10234247;23;20005;-79
2023/01/01 18:20:21;;;;;;;9.18;3.83;;;6.40;99.90;;;;;;10208390;23;20036;-80
2023/01/01 18:24:21;;;;;;;7.78;3.47;;;6.40;99.90;;;;;;10235293;23;20037;-80
2023/01/01 18:28:22;;;;;;;9.98;4.40;;;6.30;99.90;;;;;;10208768;23;20534;-79
2023/01/01 18:32:22;;;;;;;12.55;4.57;;;6.40;99.90;;;;;;10205201;23;20096;-78
2023/01/01 18:36:26;;;;;;;9.80;5.18;;;6.40;99.90;;;;;;10203946;23;20469;-78
2023/01/01 18:40:31;;;;;;;11.80;5.95;;;6.30;99.90;;;;;;10204889;23;20020;-77
2023/01/01 18:44:33;;;;;;;12.80;6.95;;;6.30;99.90;;;;;;10229370;23;20013;-77
2023/01/01 18:48:34;;;;;;;11.55;5.57;;;6.10;99.90;;;;;;10204551;23;20024;-78
2023/01/01 18:52:34;;;;;;;11.75;5.63;;;5.90;99.90;;;;;;10202794;23;20012;-78
2023/01/01 18:56:35;;;;;;;13.98;7.03;;;5.60;99.90;;;;;;10231480;23;20016;-79
2023/01/01 19:00:36;;;;;;;9.93;5.00;;;5.80;99.90;;;;;;10203836;23;20064;-78
2023/01/01 19:04:36;;;;;;;8.18;4.35;;;5.80;99.90;;;;;;10227599;23;20104;-77
2023/01/01 19:08:37;;;;;;;4.88;2.92;;;6.00;99.90;;;;;;10202719;23;20574;-78
2023/01/01 19:12:37;;;;;;;9.18;4.90;;;6.30;99.90;;;;;;10229788;23;20016;-78
2023/01/01 19:16:38;;;;;;;9.73;4.40;;;6.40;99.90;;;;;;10228990;23;20008;-78
2023/01/01 19:20:39;;;;;;;9.18;4.75;;;6.10;99.90;;;;;;10229362;23;20001;-78
2023/01/01 19:24:42;;;;;;;10.43;5.03;;;5.70;99.90;;;;;;10229578;23;20009;-78
2023/01/01 19:28:50;;;;;;;7.57;4.25;;;5.90;99.90;;;;;;10203046;23;20023;-78
2023/01/01 19:32:51;;;;;;;7.78;3.95;;;5.90;99.90;;;;;;10227544;23;20044;-78
2023/01/01 19:36:51;;;;;;;4.85;2.70;;;5.80;99.90;;;;;;10230426;23;20009;-77
2023/01/01 19:40:52;;;;;;;5.75;2.75;;;5.80;99.90;;;;;;10229541;23;20009;-78
2023/01/01 19:44:53;;;;;;;5.82;3.42;;;6.10;99.90;;;;;;10198513;23;20016;-78
2023/01/01 19:48:54;;;;;;;8.05;4.13;;;6.00;99.90;;;;;;10224997;23;20395;-79
2023/01/01 19:52:54;;;;;;;7.80;4.60;;;5.90;99.90;;;;;;10225535;23;20009;-77
2023/01/01 19:56:56;;;;;;;12.07;6.95;;;5.90;99.90;;;;;;10203274;23;20116;-78
2023/01/01 20:00:56;;;;;;;10.32;5.68;;;5.70;99.90;;;;;;10230473;23;20005;-78
2023/01/01 20:04:57;;;;;;;13.95;8.52;;;5.60;99.90;;;;;;10201719;23;20020;-78
2023/01/01 20:08:57;;;;;;;14.30;6.25;;;5.50;99.90;;;;;;10203428;23;20009;-79
2023/01/01 20:12:58;;;;;;;12.93;5.43;;;5.60;99.90;;;;;;10203218;23;20001;-77
2023/01/01 20:16:58;;;;;;;6.72;3.80;;;5.60;99.90;;;;;;10228202;23;20005;-78
2023/01/01 20:25:18;;;;;;;5.43;2.85;;;6.00;99.90;;;;;;10223831;23;20367;-77
2023/01/01 20:29:19;;;;;;;3.50;2.13;;;5.80;99.90;;;;;;10203103;23;20009;-77
2023/01/01 20:33:19;;;;;;;4.07;2.35;;;6.10;99.90;;;;;;10228040;23;20008;-78
2023/01/01 20:37:38;;;;;;;4.10;2.50;;;6.00;99.90;;;;;;10201960;23;20056;-77
2023/01/01 20:41:38;;;;;;;3.67;2.55;;;5.70;99.90;;;;;;10227887;23;20005;-77
2023/01/01 20:45:39;;;;;;;6.40;2.92;;;5.40;99.90;;;;;;10228406;23;20412;-78
2023/01/01 20:49:41;;;;;;;4.68;3.00;;;5.50;99.90;;;;;;10202474;23;20016;-78
2023/01/01 20:53:41;;;;;;;5.20;3.38;;;5.20;99.90;;;;;;10201727;23;20343;-78
2023/01/01 20:57:42;;;;;;;4.70;2.83;;;5.00;99.90;;;;;;10202933;23;20016;-78
2023/01/01 21:01:43;;;;;;;10.00;4.07;;;5.00;99.90;;;;;;10202489;23;20024;-77
2023/01/01 21:05:43;;;;;;;7.35;4.18;;;5.30;99.90;;;;;;10230394;23;20420;-78
2023/01/01 21:09:44;;;;;;;6.45;4.25;;;5.30;99.90;;;;;;10231954;23;20523;-78